Terminal Aerodrome Forecast
Issued by NWS Jackson, MS

Home | Current Version | Previous Version | Text Only | Print | Product List | Glossary On
Versions: 1 2 3 4 5 6 7 8 9 10 11 12 13 14 15 16 17
000
FTUS44 KJAN 301011 AAE
TAFHBG
TAF AMD
KHBG 301011Z 3010/3106 16003KT 3SM BR BKN002
      TEMPO 3010/3013 1/4SM FG VV002
     FM301400 25006KT P6SM BKN015
     FM301700 27010KT P6SM VCSH BKN050
     FM310000 VRB03KT P6SM BKN100=

USA.gov is the U.S. government's official web portal to all federal, state and local government web resources and services.